Terminal Aerodrome Forecast
Issued by NWS

Home | Current Version | Previous Version | Text Only | Print | Product List | Glossary On
Versions: 1 2 3 4 5 6 7 8 9 10 11 12 13 14 15 16 17
000
FTUS43 KDTX 162002 AAA
TAFDET
TAF AMD
KDET 162002Z 1620/1718 13004KT 4SM BR OVC050
      TEMPO 1620/1622 2SM -RA BR
     FM162200 11005KT 4SM BR BKN014 OVC040
      TEMPO 1622/1701 2SM -FZRA
     FM170100 08006KT 2SM -RA BR OVC008
     FM170500 09006KT 1SM -RA BR OVC004
     FM171200 15006KT 3/4SM -SHRA BR OVC003=

USA.gov is the U.S. government's official web portal to all federal, state and local government web resources and services.